createdAt,value
2022-12-01T00:00:30.331Z,4.10
2022-12-01T00:03:01.743Z,4.20
2022-12-01T00:05:35.279Z,4.20
2022-12-01T00:08:02.762Z,4.30
2022-12-01T00:10:36.197Z,4.30
2022-12-01T00:13:11.284Z,4.40
2022-12-01T00:15:38.114Z,4.50
2022-12-01T00:18:14.257Z,4.50
2022-12-01T00:20:41.144Z,4.50
2022-12-01T00:23:08.236Z,4.50
2022-12-01T00:25:41.345Z,4.60
2022-12-01T00:28:15.261Z,4.60
2022-12-01T00:30:42.176Z,4.70
2022-12-01T00:33:15.290Z,4.70
2022-12-01T00:35:48.271Z,4.80
2022-12-01T00:38:21.293Z,4.80
2022-12-01T00:40:48.047Z,4.80
2022-12-01T00:43:27.303Z,4.90
2022-12-01T00:45:55.183Z,4.90
2022-12-01T00:48:29.310Z,4.90
2022-12-01T00:50:56.510Z,5.00
2022-12-01T00:53:24.726Z,5.00
2022-12-01T00:56:00.279Z,5.00
2022-12-01T00:58:33.342Z,5.00
2022-12-01T01:01:01.643Z,5.10
2022-12-01T01:03:37.324Z,5.10
2022-12-01T01:06:10.420Z,5.10
2022-12-01T01:08:37.261Z,5.10
2022-12-01T01:11:12.370Z,5.10
2022-12-01T01:13:45.417Z,5.10
2022-12-01T01:16:24.533Z,5.10
2022-12-01T01:18:51.360Z,5.20
2022-12-01T01:21:27.362Z,5.20
2022-12-01T01:24:01.387Z,5.20
2022-12-01T01:26:30.499Z,5.20
2022-12-01T01:28:59.982Z,5.20
2022-12-01T01:31:35.392Z,5.20
2022-12-01T01:34:10.328Z,5.20
2022-12-01T01:36:43.396Z,5.20
2022-12-01T01:39:10.264Z,5.30
2022-12-01T01:41:43.405Z,5.30
2022-12-01T01:45:01.749Z,5.30
2022-12-01T01:47:45.428Z,5.30
2022-12-01T01:50:16.309Z,5.30
2022-12-01T01:52:57.487Z,5.30
2022-12-01T01:55:24.950Z,5.30
2022-12-01T01:57:51.814Z,5.30
2022-12-01T02:00:28.413Z,5.30
2022-12-01T02:02:57.982Z,5.40
2022-12-01T02:05:35.428Z,5.40
2022-12-01T02:08:03.519Z,5.40
2022-12-01T02:11:18.440Z,5.40
2022-12-01T02:14:06.422Z,5.40
2022-12-01T02:17:13.438Z,5.40
2022-12-01T02:20:11.437Z,5.40
2022-12-01T02:23:35.462Z,5.40
2022-12-01T02:26:18.961Z,5.30
2022-12-01T02:29:15.488Z,5.30
2022-12-01T02:31:54.552Z,5.30
2022-12-01T02:34:29.938Z,5.20
2022-12-01T02:37:26.443Z,5.30
2022-12-01T02:40:17.576Z,5.30
2022-12-01T02:43:06.791Z,5.30
2022-12-01T02:46:06.535Z,5.30
2022-12-01T02:48:36.564Z,5.30
2022-12-01T02:51:24.499Z,5.30
2022-12-01T02:54:00.522Z,5.30
2022-12-01T02:56:33.472Z,5.40
2022-12-01T02:59:06.517Z,5.40
2022-12-01T03:01:57.504Z,5.40
2022-12-01T03:04:30.581Z,5.40
2022-12-01T03:06:57.310Z,5.40
2022-12-01T03:09:58.569Z,5.40
2022-12-01T03:12:43.522Z,5.40
2022-12-01T03:15:45.622Z,5.30
2022-12-01T03:18:31.531Z,5.40
2022-12-01T03:20:58.310Z,5.40
2022-12-01T03:23:36.526Z,5.40
2022-12-01T03:26:07.119Z,5.40
2022-12-01T03:28:50.720Z,5.40
2022-12-01T03:31:22.856Z,5.40
2022-12-01T03:34:03.616Z,5.40
2022-12-01T03:37:08.622Z,5.40
2022-12-01T03:39:43.509Z,5.30
2022-12-01T03:42:22.567Z,5.30
2022-12-01T03:44:59.645Z,5.30
2022-12-01T03:47:35.683Z,5.30
2022-12-01T03:50:10.608Z,5.20
2022-12-01T03:53:08.603Z,5.30
2022-12-01T03:55:48.581Z,5.20
2022-12-01T03:58:26.001Z,5.20
2022-12-01T04:01:03.608Z,5.20
2022-12-01T04:03:37.580Z,5.20
2022-12-01T04:06:04.945Z,5.10
2022-12-01T04:08:33.755Z,5.10
2022-12-01T04:11:07.648Z,5.10
2022-12-01T04:13:40.622Z,5.10
2022-12-01T04:16:14.681Z,5.10
2022-12-01T04:18:47.583Z,5.10
2022-12-01T04:21:20.641Z,5.10
2022-12-01T04:24:03.413Z,5.10
2022-12-01T04:26:43.620Z,5.10
2022-12-01T04:29:12.139Z,5.00
2022-12-01T04:31:45.672Z,5.10
2022-12-01T04:34:18.643Z,5.10
2022-12-01T04:36:45.650Z,5.10
2022-12-01T04:39:13.206Z,5.00
2022-12-01T04:41:46.684Z,5.00
2022-12-01T04:44:20.639Z,5.10
2022-12-01T04:46:47.695Z,5.00
2022-12-01T04:49:21.684Z,5.10
2022-12-01T04:51:49.371Z,5.10
2022-12-01T04:54:23.684Z,5.00
2022-12-01T04:56:52.893Z,5.00
2022-12-01T04:59:19.822Z,5.00
2022-12-01T05:01:54.731Z,4.90
2022-12-01T05:04:21.567Z,4.90
2022-12-01T05:06:54.859Z,4.80
2022-12-01T05:09:21.625Z,4.70
2022-12-01T05:11:54.775Z,4.70
2022-12-01T05:14:27.699Z,4.60
2022-12-01T05:16:55.190Z,4.60
2022-12-01T05:19:46.928Z,4.50
2022-12-01T05:22:36.688Z,4.50
2022-12-01T05:25:13.018Z,4.50
2022-12-01T05:27:50.696Z,4.50
2022-12-01T05:30:28.505Z,4.50
2022-12-01T05:32:59.957Z,4.40
2022-12-01T05:35:33.765Z,4.40
2022-12-01T05:38:04.653Z,4.40
2022-12-01T05:40:41.710Z,4.30
2022-12-01T05:43:12.772Z,4.30
2022-12-01T05:45:45.748Z,4.40
2022-12-01T05:48:19.731Z,4.40
2022-12-01T05:50:46.610Z,4.40
2022-12-01T05:53:20.774Z,4.50
2022-12-01T05:55:54.595Z,4.50
2022-12-01T05:58:35.809Z,4.50
2022-12-01T06:01:03.193Z,4.50
2022-12-01T06:03:30.173Z,4.40
2022-12-01T06:06:03.994Z,4.40
2022-12-01T06:08:30.805Z,4.40
2022-12-01T06:11:03.801Z,4.40
2022-12-01T06:13:30.590Z,4.40
2022-12-01T06:16:09.815Z,4.30
2022-12-01T06:18:38.384Z,4.30
2022-12-01T06:21:18.782Z,4.30
2022-12-01T06:23:45.749Z,4.30
2022-12-01T06:26:18.801Z,4.40
2022-12-01T06:28:45.581Z,4.40
2022-12-01T06:31:19.870Z,4.40
2022-12-01T06:33:46.744Z,4.50
2022-12-01T06:36:19.879Z,4.50
2022-12-01T06:38:46.769Z,4.40
2022-12-01T06:41:19.814Z,4.40
2022-12-01T06:43:46.818Z,4.30
2022-12-01T06:46:14.235Z,4.30
2022-12-01T06:48:47.832Z,4.20
2022-12-01T06:51:20.857Z,4.20
2022-12-01T06:53:47.705Z,4.10
2022-12-01T06:56:28.024Z,4.10
2022-12-01T06:58:55.655Z,4.00
2022-12-01T07:01:28.873Z,4.00
2022-12-01T07:04:02.993Z,4.00
2022-12-01T07:06:37.867Z,4.00
2022-12-01T07:09:04.796Z,4.00
2022-12-01T07:11:38.910Z,3.90
2022-12-01T07:14:05.837Z,3.90
2022-12-01T07:16:38.978Z,3.90
2022-12-01T07:19:05.924Z,3.90
2022-12-01T07:21:38.941Z,3.90
2022-12-01T07:24:13.023Z,3.90
2022-12-01T07:26:41.254Z,3.90
2022-12-01T07:29:15.904Z,3.90
2022-12-01T07:31:42.710Z,3.80
2022-12-01T07:34:19.941Z,3.90
2022-12-01T07:36:46.848Z,3.80
2022-12-01T07:39:19.946Z,3.80
2022-12-01T07:41:46.876Z,3.80
2022-12-01T07:44:20.931Z,3.80
2022-12-01T07:46:47.757Z,3.80
2022-12-01T07:49:21.998Z,3.80
2022-12-01T07:51:48.757Z,3.80
2022-12-01T07:54:23.109Z,3.90
2022-12-01T07:56:49.939Z,3.80
2022-12-01T07:59:22.960Z,3.90
2022-12-01T08:01:49.880Z,3.90
2022-12-01T08:04:23.085Z,3.90
2022-12-01T08:06:50.024Z,3.90
2022-12-01T08:09:23.135Z,3.90
2022-12-01T08:11:49.973Z,4.00
2022-12-01T08:14:23.028Z,4.00
2022-12-01T08:16:49.912Z,4.00
2022-12-01T08:19:22.993Z,4.00
2022-12-01T08:21:57.119Z,4.10
2022-12-01T08:24:30.024Z,4.10
2022-12-01T08:27:04.007Z,4.10
2022-12-01T08:29:30.785Z,4.20
2022-12-01T08:32:05.023Z,4.20
2022-12-01T08:34:36.247Z,4.20
2022-12-01T08:37:10.019Z,4.20
2022-12-01T08:39:36.860Z,4.40
2022-12-01T08:42:03.839Z,4.50
2022-12-01T08:44:37.053Z,4.70
2022-12-01T08:47:12.043Z,4.80
2022-12-01T08:49:48.438Z,4.90
2022-12-01T08:52:27.069Z,4.90
2022-12-01T08:54:54.014Z,5.00
2022-12-01T08:57:28.076Z,5.10
2022-12-01T08:59:54.958Z,5.10
2022-12-01T09:02:24.784Z,5.20
2022-12-01T09:04:58.080Z,5.20
2022-12-01T09:07:27.019Z,5.20
2022-12-01T09:10:01.072Z,5.20
2022-12-01T09:12:30.747Z,5.10
2022-12-01T09:14:57.707Z,5.10
2022-12-01T09:17:32.091Z,5.10
2022-12-01T09:20:05.291Z,5.10
2022-12-01T09:22:34.668Z,5.10
2022-12-01T09:25:08.265Z,5.20
2022-12-01T09:27:35.271Z,5.30
2022-12-01T09:30:02.208Z,5.30
2022-12-01T09:32:38.068Z,5.30
2022-12-01T09:35:12.119Z,5.30
2022-12-01T09:37:46.183Z,5.30
2022-12-01T09:40:15.280Z,5.30
2022-12-01T09:43:00.225Z,5.40
2022-12-01T09:45:35.199Z,5.40
2022-12-01T09:48:14.174Z,5.60
2022-12-01T09:50:47.183Z,5.60
2022-12-01T09:53:26.117Z,5.70
2022-12-01T09:56:05.912Z,5.80
2022-12-01T09:58:42.373Z,5.80
2022-12-01T10:01:27.230Z,5.90
2022-12-01T10:04:05.141Z,5.90
2022-12-01T10:07:09.439Z,6.00
2022-12-01T10:10:03.332Z,6.10
2022-12-01T10:12:33.652Z,6.10
2022-12-01T10:15:21.191Z,6.20
2022-12-01T10:18:38.250Z,6.30
2022-12-01T10:21:25.169Z,6.30
2022-12-01T10:24:10.551Z,6.40
2022-12-01T10:26:58.229Z,6.40
2022-12-01T10:29:35.205Z,6.50
2022-12-01T10:32:13.400Z,6.60
2022-12-01T10:34:49.260Z,6.60
2022-12-01T10:37:24.240Z,6.60
2022-12-01T10:40:00.208Z,6.70
2022-12-01T10:42:41.372Z,6.70
2022-12-01T10:45:22.202Z,6.80
2022-12-01T10:48:15.364Z,6.90
2022-12-01T10:51:02.245Z,7.10
2022-12-01T10:53:33.592Z,7.20
2022-12-01T10:56:28.239Z,7.40
2022-12-01T10:59:04.544Z,7.60
2022-12-01T11:01:42.401Z,7.80
2022-12-01T11:04:45.332Z,7.80
2022-12-01T11:07:41.336Z,7.70
2022-12-01T11:10:30.609Z,7.40
2022-12-01T11:13:21.490Z,7.20
2022-12-01T11:16:07.321Z,7.00
2022-12-01T11:18:43.267Z,6.90
2022-12-01T11:21:26.696Z,6.80
2022-12-01T11:24:03.272Z,6.70
2022-12-01T11:26:32.220Z,6.70
2022-12-01T11:29:27.447Z,6.60
2022-12-01T11:31:54.882Z,6.60
2022-12-01T11:34:24.755Z,6.60
2022-12-01T11:37:21.381Z,6.70
2022-12-01T11:39:49.647Z,6.70
2022-12-01T11:42:37.302Z,6.80
2022-12-01T11:45:18.424Z,6.90
2022-12-01T11:48:25.327Z,6.90
2022-12-01T11:51:10.407Z,7.00
2022-12-01T11:53:46.385Z,7.10
2022-12-01T11:56:23.813Z,7.10
2022-12-01T11:59:07.338Z,7.10
2022-12-01T12:02:03.443Z,7.00
2022-12-01T12:04:49.467Z,7.00
2022-12-01T12:07:46.364Z,6.90
2022-12-01T12:10:31.507Z,6.90
2022-12-01T12:13:07.359Z,6.80
2022-12-01T12:15:50.265Z,6.80
2022-12-01T12:18:30.360Z,6.70
2022-12-01T12:21:15.693Z,6.60
2022-12-01T12:23:58.360Z,6.60
2022-12-01T12:26:52.391Z,6.60
2022-12-01T12:29:34.540Z,6.50
2022-12-01T12:32:10.382Z,6.60
2022-12-01T12:34:37.139Z,6.60
2022-12-01T12:37:38.380Z,6.70
2022-12-01T12:40:28.387Z,6.70
2022-12-01T12:43:44.384Z,6.90
2022-12-01T12:46:37.463Z,7.00
2022-12-01T12:49:37.610Z,7.10
2022-12-01T12:52:16.764Z,7.10
2022-12-01T12:55:25.494Z,7.10
2022-12-01T12:58:10.787Z,7.00
2022-12-01T13:01:02.511Z,6.90
2022-12-01T13:03:54.564Z,6.90
2022-12-01T13:06:42.720Z,6.80
2022-12-01T13:09:29.477Z,6.70
2022-12-01T13:12:24.131Z,6.70
2022-12-01T13:15:22.528Z,6.70
2022-12-01T13:18:20.423Z,6.70
2022-12-01T13:20:48.128Z,6.70
2022-12-01T13:23:24.559Z,6.70
2022-12-01T13:26:01.528Z,6.70
2022-12-01T13:28:35.293Z,6.70
2022-12-01T13:31:08.557Z,6.70
2022-12-01T13:33:38.943Z,6.70
2022-12-01T13:36:47.943Z,6.70
2022-12-01T13:39:29.489Z,6.70
2022-12-01T13:42:30.479Z,6.70
2022-12-01T13:45:00.343Z,6.70
2022-12-01T13:48:10.640Z,6.70
2022-12-01T13:50:43.865Z,6.60
2022-12-01T13:53:17.604Z,6.60
2022-12-01T13:56:07.394Z,6.60
2022-12-01T13:58:40.540Z,6.50
2022-12-01T14:01:21.542Z,6.50
2022-12-01T14:04:18.562Z,6.50
2022-12-01T14:06:56.610Z,6.40
2022-12-01T14:09:44.555Z,6.40
2022-12-01T14:12:11.366Z,6.40
2022-12-01T14:14:48.586Z,6.30
2022-12-01T14:17:33.551Z,6.30
2022-12-01T14:20:28.232Z,6.30
2022-12-01T14:23:20.515Z,6.20
2022-12-01T14:26:25.545Z,6.20
2022-12-01T14:28:55.454Z,6.10
2022-12-01T14:31:29.636Z,6.20
2022-12-01T14:34:19.073Z,6.10
2022-12-01T14:36:58.198Z,6.10
2022-12-01T14:39:44.873Z,6.10
2022-12-01T14:42:18.639Z,6.00
2022-12-01T14:44:49.851Z,6.00
2022-12-01T14:47:33.617Z,5.90
2022-12-01T14:50:14.604Z,5.80
2022-12-01T14:52:47.647Z,5.80
2022-12-01T14:55:40.704Z,5.80
2022-12-01T14:58:17.876Z,5.70
2022-12-01T15:01:06.654Z,5.70
2022-12-01T15:03:48.733Z,5.60
2022-12-01T15:06:23.586Z,5.50
2022-12-01T15:09:33.382Z,5.50
2022-12-01T15:12:04.861Z,5.40
2022-12-01T15:14:55.735Z,5.40
2022-12-01T15:17:34.644Z,5.30
2022-12-01T15:20:07.662Z,5.30
2022-12-01T15:22:41.665Z,5.20
2022-12-01T15:25:15.619Z,5.20
2022-12-01T15:27:51.661Z,5.10
2022-12-01T15:30:25.647Z,5.10
2022-12-01T15:32:52.557Z,5.00
2022-12-01T15:35:28.692Z,5.00
2022-12-01T15:38:10.675Z,5.00
2022-12-01T15:41:20.710Z,4.90
2022-12-01T15:43:44.679Z,4.90
2022-12-01T15:46:24.809Z,4.80
2022-12-01T15:49:07.023Z,4.80
2022-12-01T15:51:40.702Z,4.80
2022-12-01T15:54:20.328Z,4.80
2022-12-01T15:56:58.676Z,4.80
2022-12-01T15:59:47.763Z,4.80
2022-12-01T16:02:24.810Z,4.80
2022-12-01T16:05:10.746Z,4.80
2022-12-01T16:08:11.639Z,4.80
2022-12-01T16:10:43.690Z,4.70
2022-12-01T16:13:47.666Z,4.70
2022-12-01T16:16:59.992Z,4.70
2022-12-01T16:19:42.742Z,4.60
2022-12-01T16:22:21.734Z,4.60
2022-12-01T16:25:01.730Z,4.50
2022-12-01T16:27:37.753Z,4.50
2022-12-01T16:30:19.143Z,4.50
2022-12-01T16:32:54.797Z,4.50
2022-12-01T16:35:21.586Z,4.50
2022-12-01T16:37:54.784Z,4.50
2022-12-01T16:40:21.547Z,4.40
2022-12-01T16:42:57.765Z,4.40
2022-12-01T16:45:32.807Z,4.40
2022-12-01T16:48:07.776Z,4.30
2022-12-01T16:50:42.810Z,4.30
2022-12-01T16:53:18.765Z,4.20
2022-12-01T16:55:53.084Z,4.30
2022-12-01T16:58:26.936Z,4.20
2022-12-01T17:00:54.338Z,4.20
2022-12-01T17:03:33.810Z,4.20
2022-12-01T17:06:02.265Z,4.10
2022-12-01T17:08:38.837Z,4.10
2022-12-01T17:11:10.541Z,4.10
2022-12-01T17:13:47.882Z,4.10
2022-12-01T17:16:18.452Z,4.00
2022-12-01T17:18:45.938Z,4.00
2022-12-01T17:21:24.863Z,3.90
2022-12-01T17:23:51.698Z,3.90
2022-12-01T17:26:32.878Z,3.90
2022-12-01T17:28:59.839Z,3.90
2022-12-01T17:31:33.870Z,3.90
2022-12-01T17:34:00.745Z,3.90
2022-12-01T17:36:34.950Z,3.90
2022-12-01T17:39:01.710Z,3.80
2022-12-01T17:41:41.829Z,3.80
2022-12-01T17:44:08.691Z,3.80
2022-12-01T17:46:41.967Z,3.80
2022-12-01T17:49:10.592Z,3.80
2022-12-01T17:51:37.835Z,3.70
2022-12-01T17:54:11.881Z,3.70
2022-12-01T17:56:38.668Z,3.70
2022-12-01T17:59:11.861Z,3.70
2022-12-01T18:01:39.499Z,3.70
2022-12-01T18:04:12.880Z,3.60
2022-12-01T18:06:50.782Z,3.60
2022-12-01T18:09:21.084Z,3.60
2022-12-01T18:11:54.880Z,3.60
2022-12-01T18:14:28.920Z,3.60
2022-12-01T18:16:55.984Z,3.60
2022-12-01T18:19:29.029Z,3.60
2022-12-01T18:22:00.908Z,3.60
2022-12-01T18:24:33.911Z,3.50
2022-12-01T18:27:00.922Z,3.60
2022-12-01T18:29:35.004Z,3.50
2022-12-01T18:32:02.052Z,3.50
2022-12-01T18:34:38.958Z,3.50
2022-12-01T18:37:12.935Z,3.50
2022-12-01T18:39:39.840Z,3.50
2022-12-01T18:42:12.972Z,3.50
2022-12-01T18:44:46.972Z,3.50
2022-12-01T18:47:14.537Z,3.50
2022-12-01T18:49:47.999Z,3.50
2022-12-01T18:52:18.196Z,3.40
2022-12-01T18:54:45.098Z,3.50
2022-12-01T18:57:19.015Z,3.50
2022-12-01T18:59:53.016Z,3.50
2022-12-01T19:02:19.998Z,3.50
2022-12-01T19:04:55.964Z,3.40
2022-12-01T19:07:36.282Z,3.40
2022-12-01T19:10:10.956Z,3.40
2022-12-01T19:12:44.041Z,3.40
2022-12-01T19:15:11.471Z,3.40
2022-12-01T19:17:38.750Z,3.30
2022-12-01T19:20:13.998Z,3.30
2022-12-01T19:22:46.985Z,3.30
2022-12-01T19:25:14.027Z,3.30
2022-12-01T19:27:47.050Z,3.30
2022-12-01T19:30:20.993Z,3.30
2022-12-01T19:32:48.539Z,3.30
2022-12-01T19:35:22.058Z,3.20
2022-12-01T19:37:48.983Z,3.20
2022-12-01T19:40:22.085Z,3.20
2022-12-01T19:42:48.977Z,3.10
2022-12-01T19:45:22.060Z,3.10
2022-12-01T19:47:49.083Z,3.10
2022-12-01T19:50:22.160Z,3.10
2022-12-01T19:52:49.357Z,3.10
2022-12-01T19:55:23.133Z,3.10
2022-12-01T19:57:51.731Z,3.00
2022-12-01T20:00:28.114Z,3.00
2022-12-01T20:02:54.893Z,3.00
2022-12-01T20:05:28.153Z,3.00
2022-12-01T20:08:01.180Z,3.00
2022-12-01T20:10:28.216Z,3.10
2022-12-01T20:12:57.533Z,3.10
2022-12-01T20:15:31.099Z,3.10
2022-12-01T20:17:57.911Z,3.10
2022-12-01T20:20:31.122Z,3.10
2022-12-01T20:22:59.995Z,3.20
2022-12-01T20:25:40.073Z,3.20
2022-12-01T20:28:06.832Z,3.20
2022-12-01T20:30:40.149Z,3.20
2022-12-01T20:33:06.964Z,3.30
2022-12-01T20:35:33.840Z,3.30
2022-12-01T20:38:07.129Z,3.30
2022-12-01T20:40:33.899Z,3.40
2022-12-01T20:43:00.716Z,3.40
2022-12-01T20:45:34.209Z,3.50
2022-12-01T20:48:07.121Z,3.60
2022-12-01T20:50:33.949Z,3.70
2022-12-01T20:53:00.844Z,3.70
2022-12-01T20:55:34.144Z,3.80
2022-12-01T20:58:09.177Z,3.80
2022-12-01T21:00:41.713Z,3.90
2022-12-01T21:03:08.871Z,3.90
2022-12-01T21:05:46.146Z,4.00
2022-12-01T21:08:14.866Z,4.00
2022-12-01T21:10:51.200Z,4.10
2022-12-01T21:13:39.093Z,4.10
2022-12-01T21:16:17.395Z,4.20
2022-12-01T21:19:02.202Z,4.10
2022-12-01T21:21:37.398Z,4.20
2022-12-01T21:24:13.572Z,4.20
2022-12-01T21:26:58.221Z,4.20
2022-12-01T21:29:38.478Z,4.20
2022-12-01T21:32:26.356Z,4.30
2022-12-01T21:34:55.263Z,4.30
2022-12-01T21:37:31.316Z,4.40
2022-12-01T21:40:05.282Z,4.40
2022-12-01T21:42:38.326Z,4.30
2022-12-01T21:45:14.354Z,4.40
2022-12-01T21:47:48.233Z,4.40
2022-12-01T21:50:36.260Z,4.40
2022-12-01T21:53:27.257Z,4.40
2022-12-01T21:55:57.882Z,4.40
2022-12-01T21:58:34.243Z,4.40
2022-12-01T22:01:02.704Z,4.40
2022-12-01T22:03:34.051Z,4.40
2022-12-01T22:06:31.381Z,4.40
2022-12-01T22:09:08.257Z,4.40
2022-12-01T22:11:41.312Z,4.40
2022-12-01T22:14:39.430Z,4.40
2022-12-01T22:17:12.370Z,4.40
2022-12-01T22:19:53.705Z,4.50
2022-12-01T22:22:39.289Z,4.40
2022-12-01T22:25:24.186Z,4.50
2022-12-01T22:27:59.330Z,4.40
2022-12-01T22:30:26.197Z,4.40
2022-12-01T22:33:04.296Z,4.50
2022-12-01T22:35:48.437Z,4.40
2022-12-01T22:38:45.285Z,4.40
2022-12-01T22:41:17.050Z,4.50
2022-12-01T22:44:07.337Z,4.50
2022-12-01T22:46:37.607Z,4.50
2022-12-01T22:49:17.372Z,4.50
2022-12-01T22:52:04.404Z,4.50
2022-12-01T22:54:51.549Z,4.50
2022-12-01T22:57:41.322Z,4.50
2022-12-01T23:00:23.424Z,4.50
2022-12-01T23:03:02.403Z,4.50
2022-12-01T23:05:37.353Z,4.50
2022-12-01T23:08:10.672Z,4.50
2022-12-01T23:10:46.379Z,4.50
2022-12-01T23:13:22.701Z,4.50
2022-12-01T23:16:00.457Z,4.50
2022-12-01T23:18:33.868Z,4.50
2022-12-01T23:21:08.529Z,4.50
2022-12-01T23:23:37.113Z,4.50
2022-12-01T23:26:06.833Z,4.50
2022-12-01T23:28:42.377Z,4.50
2022-12-01T23:31:16.461Z,4.50
2022-12-01T23:33:43.272Z,4.50
2022-12-01T23:36:25.419Z,4.60
2022-12-01T23:38:55.642Z,4.60
2022-12-01T23:41:52.381Z,4.50
2022-12-01T23:44:39.764Z,4.50
2022-12-01T23:47:25.415Z,4.50
2022-12-01T23:50:00.676Z,4.50
2022-12-01T23:52:40.402Z,4.60
2022-12-01T23:55:34.175Z,4.50
2022-12-01T23:58:08.420Z,4.50
